Time;durP1;ratioP1;P1;durP2;ratioP2;P2;SDS_P1;SDS_P2;PMS_P1;PMS_P2;Temp;Humidity;BMP_temperature;BMP_pressure;BME280_temperature;BME280_humidity;BME280_pressure;Samples;Min_cycle;Max_cycle;Signal;HPM_P1;HPM_P2
2024/04/25 00:01:27;;;;;;;3.80;1.70;;;20.00;47.10;;;;;;5425413;26;19995;-59
2024/04/25 00:03:53;;;;;;;3.05;1.60;;;20.00;47.10;;;;;;5428248;26;20007;-60
2024/04/25 00:06:18;;;;;;;2.78;1.50;;;20.00;47.10;;;;;;5424816;26;20497;-60
2024/04/25 00:08:44;;;;;;;3.53;1.80;;;20.00;47.10;;;;;;5430918;26;20104;-60
2024/04/25 00:11:10;;;;;;;3.10;1.73;;;20.00;47.10;;;;;;5432332;26;20007;-60
2024/04/25 00:13:35;;;;;;;3.20;1.98;;;20.00;47.10;;;;;;5429636;26;19995;-60
2024/04/25 00:16:01;;;;;;;2.95;1.85;;;20.00;47.10;;;;;;5428708;26;19998;-60
2024/04/25 00:18:27;;;;;;;3.45;1.73;;;20.00;47.10;;;;;;5430010;26;20018;-62
2024/04/25 00:20:52;;;;;;;3.55;1.92;;;20.00;47.10;;;;;;5427066;26;20007;-63
2024/04/25 00:23:18;;;;;;;3.08;1.67;;;20.00;47.10;;;;;;5422902;26;20018;-63
2024/04/25 00:25:44;;;;;;;2.58;1.60;;;20.00;47.10;;;;;;5427042;26;19998;-62
2024/04/25 00:28:09;;;;;;;3.30;1.77;;;20.00;47.10;;;;;;5426834;26;19999;-63
2024/04/25 00:30:35;;;;;;;2.72;1.50;;;19.90;47.10;;;;;;5426441;26;20424;-63
2024/04/25 00:33:01;;;;;;;2.88;1.55;;;20.00;47.10;;;;;;5423301;26;20018;-63
2024/04/25 00:35:26;;;;;;;3.25;1.58;;;20.00;47.10;;;;;;5430302;26;20016;-62
2024/04/25 00:37:52;;;;;;;3.70;1.80;;;19.90;47.00;;;;;;5425258;26;20085;-63
2024/04/25 00:40:17;;;;;;;3.15;1.88;;;20.00;47.10;;;;;;5428790;26;20041;-62
2024/04/25 00:42:43;;;;;;;3.53;1.92;;;19.90;47.10;;;;;;5431058;26;20002;-63
2024/04/25 00:45:09;;;;;;;2.75;1.52;;;19.90;47.00;;;;;;5431751;26;20004;-62
2024/04/25 00:47:37;;;;;;;2.25;1.60;;;19.90;47.00;;;;;;5426579;26;20014;-59
2024/04/25 00:50:03;;;;;;;2.50;1.52;;;19.90;47.00;;;;;;5430778;26;20003;-61
2024/04/25 00:52:31;;;;;;;2.30;1.38;;;19.90;47.00;;;;;;5425554;26;20006;-61
2024/04/25 00:54:57;;;;;;;2.72;1.60;;;19.90;47.00;;;;;;5430298;26;20067;-61
2024/04/25 00:57:24;;;;;;;2.72;1.65;;;19.90;47.00;;;;;;5429425;26;19999;-61
2024/04/25 00:59:54;;;;;;;3.15;1.67;;;19.90;47.00;;;;;;5428964;26;20000;-62
2024/04/25 01:02:21;;;;;;;2.50;1.40;;;19.90;47.00;;;;;;5426093;26;20403;-62
2024/04/25 01:04:49;;;;;;;4.00;1.45;;;19.90;47.00;;;;;;5432359;26;20455;-63
2024/04/25 01:07:15;;;;;;;2.60;1.40;;;19.90;47.00;;;;;;5425868;26;20019;-62
2024/04/25 01:09:41;;;;;;;3.05;1.50;;;19.90;47.00;;;;;;5431143;26;19992;-61
2024/04/25 01:12:07;;;;;;;2.88;1.52;;;19.90;47.00;;;;;;5426478;26;20005;-61
2024/04/25 01:14:33;;;;;;;2.92;1.50;;;19.90;47.00;;;;;;5429432;26;19992;-61
2024/04/25 01:16:59;;;;;;;2.70;1.48;;;19.90;47.00;;;;;;5428107;26;19999;-61
2024/04/25 01:19:25;;;;;;;2.47;1.40;;;19.90;47.00;;;;;;5426538;26;19998;-61
2024/04/25 01:21:51;;;;;;;2.70;1.33;;;19.90;47.00;;;;;;5424725;26;20000;-61
2024/04/25 01:24:23;;;;;;;2.92;1.50;;;19.90;47.00;;;;;;5426917;26;20053;-61
2024/04/25 01:26:49;;;;;;;2.35;1.50;;;19.80;46.90;;;;;;5431775;26;19995;-61
2024/04/25 01:29:17;;;;;;;2.05;1.27;;;19.90;47.00;;;;;;5429443;26;19997;-59
2024/04/25 01:31:44;;;;;;;2.55;1.20;;;19.90;46.90;;;;;;5428802;26;20001;-60
2024/04/25 01:34:12;;;;;;;1.98;1.20;;;19.90;46.90;;;;;;5421707;26;19995;-60
2024/04/25 01:36:41;;;;;;;2.83;1.40;;;19.90;46.90;;;;;;5426185;26;19999;-60
2024/04/25 01:39:07;;;;;;;2.00;1.30;;;19.90;46.90;;;;;;5428818;26;20007;-60
2024/04/25 01:41:33;;;;;;;2.78;1.40;;;19.80;46.90;;;;;;5426842;26;19996;-59
2024/04/25 01:43:58;;;;;;;2.47;1.65;;;19.80;46.90;;;;;;5429019;26;20003;-59
2024/04/25 01:46:24;;;;;;;2.05;1.20;;;19.80;46.90;;;;;;5425829;26;19995;-60
2024/04/25 01:48:51;;;;;;;1.98;1.20;;;19.80;46.90;;;;;;5429167;26;21210;-60
2024/04/25 01:51:19;;;;;;;2.60;1.40;;;19.80;46.90;;;;;;5426035;26;19995;-59
2024/04/25 01:53:45;;;;;;;2.10;1.20;;;19.80;47.40;;;;;;5429912;26;20011;-59
2024/04/25 01:56:12;;;;;;;2.55;1.35;;;19.80;46.90;;;;;;5425320;26;20522;-60
2024/04/25 01:58:38;;;;;;;2.03;1.27;;;19.80;46.80;;;;;;5425778;26;20368;-60
2024/04/25 02:01:03;;;;;;;2.00;1.20;;;19.80;46.90;;;;;;5422927;26;20126;-60
2024/04/25 02:03:29;;;;;;;2.63;1.10;;;19.80;46.90;;;;;;5428061;26;20547;-60
2024/04/25 02:05:55;;;;;;;2.25;1.35;;;19.80;46.80;;;;;;5428550;26;20024;-60
2024/04/25 02:08:21;;;;;;;1.65;1.13;;;19.80;46.80;;;;;;5420004;26;20001;-60
2024/04/25 02:10:47;;;;;;;1.65;1.27;;;19.80;46.80;;;;;;5423139;26;20009;-60
2024/04/25 02:13:12;;;;;;;2.45;1.35;;;19.80;46.80;;;;;;5431907;26;20007;-60
2024/04/25 02:15:38;;;;;;;1.65;1.08;;;19.80;46.80;;;;;;5428284;26;20010;-59
2024/04/25 02:18:04;;;;;;;1.60;1.10;;;19.90;47.40;;;;;;5426390;26;20450;-60
2024/04/25 02:26:06;;;;;;;2.15;1.30;;;19.80;46.80;;;;;;5426083;26;20164;-60
2024/04/25 02:28:32;;;;;;;2.08;1.27;;;19.80;46.80;;;;;;5428085;26;20002;-60
2024/04/25 02:30:58;;;;;;;1.80;1.13;;;19.80;46.80;;;;;;5426693;26;20083;-59
2024/04/25 02:33:25;;;;;;;2.10;1.20;;;19.80;46.80;;;;;;5424666;26;20499;-60
2024/04/25 02:35:50;;;;;;;1.98;1.27;;;19.80;46.80;;;;;;5427523;26;20435;-60
2024/04/25 02:38:16;;;;;;;1.85;1.05;;;19.80;46.80;;;;;;5425562;26;20007;-63
2024/04/25 02:40:46;;;;;;;1.48;1.00;;;19.80;46.80;;;;;;5424328;26;19995;-61
2024/04/25 02:43:11;;;;;;;1.35;1.02;;;19.80;46.80;;;;;;5426254;26;20018;-61
2024/04/25 02:45:37;;;;;;;1.70;1.10;;;19.80;46.80;;;;;;5425590;26;20010;-61
2024/04/25 02:48:03;;;;;;;2.33;1.30;;;19.80;46.80;;;;;;5425019;26;20093;-61
2024/04/25 02:50:29;;;;;;;1.88;1.20;;;19.80;46.80;;;;;;5426491;26;20073;-61
2024/04/25 02:52:54;;;;;;;1.70;1.00;;;19.80;46.80;;;;;;5424600;26;21062;-61
2024/04/25 02:55:20;;;;;;;1.90;1.00;;;19.80;46.80;;;;;;5425245;26;20089;-61
2024/04/25 02:57:46;;;;;;;1.58;1.17;;;19.80;46.80;;;;;;5422198;26;20064;-61
2024/04/25 03:00:12;;;;;;;2.28;1.30;;;19.70;46.70;;;;;;5426803;26;20003;-61
2024/04/25 03:02:37;;;;;;;2.22;0.93;;;19.70;46.70;;;;;;5427892;26;20110;-61
2024/04/25 03:05:03;;;;;;;1.60;1.10;;;19.70;46.70;;;;;;5428169;26;20131;-61
2024/04/25 03:07:29;;;;;;;1.95;1.20;;;19.70;46.80;;;;;;5425339;26;20003;-61
2024/04/25 03:09:54;;;;;;;1.58;1.08;;;19.70;46.80;;;;;;5430833;26;19999;-59
2024/04/25 03:12:20;;;;;;;2.22;1.20;;;19.70;46.80;;;;;;5430125;26;20421;-60
2024/04/25 03:14:46;;;;;;;1.88;1.00;;;19.70;46.80;;;;;;5431473;26;19999;-59
2024/04/25 03:17:11;;;;;;;1.45;1.02;;;19.70;46.80;;;;;;5435937;26;20003;-59
2024/04/25 03:19:37;;;;;;;1.52;0.93;;;19.70;46.80;;;;;;5429673;26;20637;-59
2024/04/25 03:22:02;;;;;;;1.52;1.20;;;19.70;46.80;;;;;;5426251;26;20004;-60
2024/04/25 03:24:29;;;;;;;1.35;1.00;;;19.70;46.80;;;;;;5433721;26;20033;-60
2024/04/25 03:26:54;;;;;;;1.13;0.90;;;19.70;46.80;;;;;;5432631;26;20003;-61
2024/04/25 03:29:20;;;;;;;1.50;1.00;;;19.70;46.80;;;;;;5431228;26;20504;-62
2024/04/25 03:31:46;;;;;;;1.67;1.15;;;19.70;46.80;;;;;;5425756;26;20002;-62
2024/04/25 03:34:11;;;;;;;1.85;1.00;;;19.70;46.80;;;;;;5426067;26;19999;-63
2024/04/25 03:36:37;;;;;;;1.85;1.15;;;19.70;46.90;;;;;;5429815;26;20014;-62
2024/04/25 03:39:03;;;;;;;1.52;0.90;;;19.70;46.90;;;;;;5427257;26;20073;-62
2024/04/25 03:41:32;;;;;;;1.33;0.95;;;19.70;46.90;;;;;;5427004;26;20064;-62
2024/04/25 03:43:58;;;;;;;1.55;1.00;;;19.70;46.90;;;;;;5434626;26;19999;-63
2024/04/25 03:46:24;;;;;;;1.55;0.90;;;19.70;46.90;;;;;;5431106;26;20007;-62
2024/04/25 03:48:49;;;;;;;1.60;1.10;;;19.70;46.90;;;;;;5427409;26;20010;-60
2024/04/25 03:51:15;;;;;;;1.75;1.02;;;19.60;46.90;;;;;;5428967;26;20353;-60
2024/04/25 03:53:41;;;;;;;2.40;1.10;;;19.70;46.90;;;;;;5426828;26;20108;-61
2024/04/25 03:56:07;;;;;;;1.92;1.10;;;19.70;46.90;;;;;;5426917;26;20007;-60
2024/04/25 03:58:32;;;;;;;0.90;0.80;;;19.60;46.90;;;;;;5426299;26;19999;-60
2024/04/25 04:00:58;;;;;;;1.73;1.08;;;19.60;46.90;;;;;;5429222;26;20007;-60
2024/04/25 04:03:24;;;;;;;1.65;1.00;;;19.70;47.00;;;;;;5427974;26;20491;-59
2024/04/25 04:05:49;;;;;;;1.60;1.00;;;19.60;47.50;;;;;;5428699;26;19994;-60
2024/04/25 04:08:15;;;;;;;1.65;0.93;;;19.60;46.90;;;;;;5424163;26;20086;-59
2024/04/25 04:10:41;;;;;;;1.20;0.82;;;19.60;46.90;;;;;;5431824;26;20009;-59
2024/04/25 04:13:07;;;;;;;1.23;0.80;;;19.60;47.00;;;;;;5431977;26;19995;-60
2024/04/25 04:15:33;;;;;;;1.35;0.85;;;19.60;46.90;;;;;;5428604;26;20010;-60
2024/04/25 04:17:59;;;;;;;1.25;0.90;;;19.60;47.00;;;;;;5429664;26;20038;-60
2024/04/25 04:20:24;;;;;;;1.38;0.80;;;19.60;47.00;;;;;;5428014;26;20002;-59
2024/04/25 04:22:50;;;;;;;1.75;1.00;;;19.60;47.00;;;;;;5424096;26;19999;-60
2024/04/25 04:25:16;;;;;;;1.38;0.80;;;19.60;47.00;;;;;;5429200;26;20465;-59
2024/04/25 04:27:42;;;;;;;1.70;1.00;;;19.60;47.00;;;;;;5425635;26;20006;-59
2024/04/25 04:30:08;;;;;;;1.00;0.80;;;19.60;47.00;;;;;;5428438;26;20413;-59
2024/04/25 04:32:34;;;;;;;1.20;0.80;;;19.60;47.00;;;;;;5427830;26;19995;-60
2024/04/25 04:34:59;;;;;;;0.90;0.77;;;19.60;47.00;;;;;;5427072;26;20002;-59
2024/04/25 04:37:25;;;;;;;1.15;0.85;;;19.60;47.00;;;;;;5423625;26;20088;-61
2024/04/25 04:39:51;;;;;;;1.23;0.77;;;19.60;47.00;;;;;;5428457;26;20031;-60
2024/04/25 04:42:16;;;;;;;1.05;0.80;;;19.60;47.10;;;;;;5427543;26;20013;-60
2024/04/25 04:44:42;;;;;;;1.02;0.70;;;19.60;47.10;;;;;;5425872;26;20071;-60
2024/04/25 04:47:09;;;;;;;0.90;0.70;;;19.60;47.10;;;;;;5426512;26;19996;-60
2024/04/25 04:49:35;;;;;;;1.75;1.00;;;19.60;47.10;;;;;;5429730;26;20524;-59
2024/04/25 04:52:01;;;;;;;1.50;0.80;;;19.60;47.10;;;;;;5430869;26;20002;-60
2024/04/25 04:54:27;;;;;;;1.80;1.05;;;19.60;47.10;;;;;;5429441;26;20012;-60
2024/04/25 04:56:53;;;;;;;1.40;0.80;;;19.60;47.20;;;;;;5429619;26;20000;-60
2024/04/25 04:59:18;;;;;;;1.55;0.80;;;19.60;47.20;;;;;;5430275;26;20007;-59
2024/04/25 05:01:44;;;;;;;1.63;1.00;;;19.60;47.20;;;;;;5430586;26;20463;-59
2024/04/25 05:04:10;;;;;;;1.27;0.80;;;19.60;47.20;;;;;;5421731;26;20180;-59
2024/04/25 05:06:35;;;;;;;1.40;0.90;;;19.60;47.40;;;;;;5428113;26;20004;-59
2024/04/25 05:09:01;;;;;;;1.70;0.95;;;19.60;47.50;;;;;;5427199;26;19999;-57
2024/04/25 05:11:29;;;;;;;0.80;0.70;;;19.60;47.50;;;;;;5428219;26;20609;-59
2024/04/25 05:13:55;;;;;;;1.70;0.95;;;19.60;47.60;;;;;;5424783;26;20014;-58
2024/04/25 05:16:21;;;;;;;1.92;1.00;;;19.60;47.60;;;;;;5426922;26;20000;-59
2024/04/25 05:18:47;;;;;;;2.05;0.98;;;19.60;47.70;;;;;;5427253;26;20343;-59
2024/04/25 05:21:13;;;;;;;1.40;0.90;;;19.60;47.70;;;;;;5428870;26;20000;-59
2024/04/25 05:23:38;;;;;;;1.65;1.10;;;19.60;48.30;;;;;;5426634;26;20007;-59
2024/04/25 05:26:06;;;;;;;1.88;0.90;;;19.60;47.80;;;;;;5427953;26;20003;-59
2024/04/25 05:28:31;;;;;;;1.83;0.90;;;19.60;47.80;;;;;;5431759;26;20015;-62
2024/04/25 05:30:57;;;;;;;2.00;0.85;;;19.60;47.90;;;;;;5425637;26;20308;-62
2024/04/25 05:33:23;;;;;;;1.20;0.80;;;19.60;48.00;;;;;;5431185;26;20071;-62
2024/04/25 05:35:50;;;;;;;1.52;0.95;;;19.60;48.00;;;;;;5431547;26;20006;-62
2024/04/25 05:38:16;;;;;;;1.30;0.90;;;19.60;48.00;;;;;;5427866;26;20476;-63
2024/04/25 05:40:42;;;;;;;1.50;0.82;;;19.60;48.00;;;;;;5427874;26;20399;-62
2024/04/25 05:43:08;;;;;;;1.20;0.95;;;19.60;48.00;;;;;;5431057;26;20003;-62
2024/04/25 05:45:34;;;;;;;1.63;1.00;;;19.60;48.10;;;;;;5431985;26;19999;-63
2024/04/25 05:48:00;;;;;;;1.60;0.90;;;19.60;48.10;;;;;;5427318;26;20014;-62
2024/04/25 05:50:25;;;;;;;1.92;0.90;;;19.60;48.10;;;;;;5427502;26;19995;-61
2024/04/25 05:52:51;;;;;;;1.95;0.93;;;19.60;48.10;;;;;;5429239;26;19999;-60
2024/04/25 05:55:17;;;;;;;1.48;1.00;;;19.60;48.20;;;;;;5424803;26;20000;-61
2024/04/25 05:57:43;;;;;;;1.33;0.90;;;19.60;48.20;;;;;;5428069;26;20068;-61
2024/04/25 06:00:09;;;;;;;1.20;0.80;;;19.60;48.20;;;;;;5433123;26;19995;-61
2024/04/25 06:02:35;;;;;;;0.95;0.70;;;19.60;48.20;;;;;;5425343;26;20076;-61
2024/04/25 06:05:00;;;;;;;1.50;0.90;;;19.60;48.20;;;;;;5428802;26;19994;-61
2024/04/25 06:07:26;;;;;;;1.05;0.80;;;19.60;48.20;;;;;;5431715;26;20083;-61
2024/04/25 06:09:53;;;;;;;1.00;0.90;;;19.70;48.20;;;;;;5421054;26;20011;-60
2024/04/25 06:12:18;;;;;;;2.88;0.95;;;19.60;48.20;;;;;;5426112;26;19998;-60
2024/04/25 06:14:44;;;;;;;1.17;0.80;;;19.60;48.20;;;;;;5423960;26;20035;-60
2024/04/25 06:17:09;;;;;;;1.20;0.88;;;19.60;48.20;;;;;;5427514;26;19995;-61
2024/04/25 06:19:35;;;;;;;1.55;0.82;;;19.60;48.20;;;;;;5424702;26;20007;-60
2024/04/25 06:22:02;;;;;;;1.00;0.75;;;19.60;48.30;;;;;;5425454;26;20665;-61
2024/04/25 06:24:28;;;;;;;1.40;1.00;;;19.60;48.30;;;;;;5421698;26;20007;-61
2024/04/25 06:26:54;;;;;;;1.27;0.90;;;19.60;48.20;;;;;;5428607;26;20034;-60
2024/04/25 06:29:20;;;;;;;1.30;0.90;;;19.70;48.30;;;;;;5429971;26;19996;-60
2024/04/25 06:31:45;;;;;;;1.38;0.80;;;19.70;48.30;;;;;;5428879;26;20004;-61
2024/04/25 06:34:11;;;;;;;1.45;0.93;;;19.60;48.30;;;;;;5428343;26;19995;-60
2024/04/25 06:36:37;;;;;;;1.40;0.75;;;19.60;48.30;;;;;;5429083;26;20010;-60
2024/04/25 06:39:03;;;;;;;1.08;0.80;;;19.70;48.30;;;;;;5426351;26;20013;-62
2024/04/25 06:41:29;;;;;;;0.75;0.60;;;19.70;48.30;;;;;;5430074;26;20011;-62
2024/04/25 06:43:55;;;;;;;0.77;0.68;;;19.70;48.30;;;;;;5433135;26;20439;-63
2024/04/25 06:46:22;;;;;;;1.10;0.75;;;19.70;48.30;;;;;;5433787;26;19999;-63
2024/04/25 06:48:47;;;;;;;1.13;0.65;;;19.70;48.40;;;;;;5429656;26;19999;-63
2024/04/25 06:51:18;;;;;;;1.15;0.80;;;19.70;48.40;;;;;;5429376;26;20576;-64
2024/04/25 06:53:44;;;;;;;2.30;0.80;;;19.70;48.30;;;;;;5424436;26;20011;-63
2024/04/25 06:56:10;;;;;;;0.82;0.70;;;19.70;48.30;;;;;;5444820;26;20014;-63
2024/04/25 06:58:35;;;;;;;0.80;0.70;;;19.70;48.30;;;;;;5445559;26;20023;-63
2024/04/25 07:01:01;;;;;;;0.90;0.70;;;19.70;48.30;;;;;;5429442;26;20437;-60
2024/04/25 07:03:27;;;;;;;0.90;0.60;;;19.70;48.30;;;;;;5428984;26;20014;-60
2024/04/25 07:05:53;;;;;;;1.00;0.70;;;19.70;48.30;;;;;;5427250;26;20008;-60
2024/04/25 07:08:18;;;;;;;0.95;0.77;;;19.70;48.80;;;;;;5436106;26;19999;-61
2024/04/25 07:10:44;;;;;;;2.85;0.80;;;19.70;48.30;;;;;;5425944;26;20354;-60
2024/04/25 07:13:10;;;;;;;1.75;0.80;;;19.70;48.30;;;;;;5428881;26;20066;-61
2024/04/25 07:15:35;;;;;;;0.90;0.80;;;19.70;48.30;;;;;;5426461;26;20439;-60
2024/04/25 07:18:03;;;;;;;1.63;0.80;;;19.70;48.30;;;;;;5432250;26;20013;-60
2024/04/25 07:20:33;;;;;;;0.65;0.60;;;19.80;48.40;;;;;;5430838;26;20015;-61
2024/04/25 07:22:58;;;;;;;1.13;0.65;;;19.70;48.30;;;;;;5425251;26;20003;-61
2024/04/25 07:25:25;;;;;;;0.85;0.70;;;19.70;48.30;;;;;;5426939;26;20526;-60
2024/04/25 07:27:51;;;;;;;0.68;0.60;;;19.70;48.40;;;;;;5430157;26;20076;-61
2024/04/25 07:30:17;;;;;;;1.50;0.70;;;19.70;48.30;;;;;;5432495;26;20019;-61
2024/04/25 07:32:43;;;;;;;0.93;0.60;;;19.70;48.40;;;;;;5432877;26;20411;-61
2024/04/25 07:35:10;;;;;;;0.77;0.70;;;19.80;48.40;;;;;;5429532;26;20490;-61
2024/04/25 07:37:37;;;;;;;2.13;0.63;;;19.80;48.50;;;;;;5436858;26;20171;-61
2024/04/25 07:40:07;;;;;;;0.70;0.60;;;19.80;48.50;;;;;;5425326;26;20002;-61
2024/04/25 07:42:33;;;;;;;1.58;0.55;;;19.80;48.50;;;;;;5429343;26;20103;-61
2024/04/25 07:45:01;;;;;;;0.57;0.50;;;19.80;48.50;;;;;;5431602;26;20185;-60
2024/04/25 07:47:29;;;;;;;0.95;0.70;;;19.80;48.50;;;;;;5425736;26;20014;-60
2024/04/25 07:49:55;;;;;;;0.88;0.60;;;19.80;48.50;;;;;;5426316;26;20035;-62
2024/04/25 07:52:21;;;;;;;1.00;0.80;;;19.80;48.40;;;;;;5433065;26;20613;-62
2024/04/25 07:54:48;;;;;;;1.15;0.68;;;19.80;48.40;;;;;;5427096;26;20014;-62
2024/04/25 07:57:14;;;;;;;0.73;0.60;;;19.80;48.40;;;;;;5431945;26;20043;-63
2024/04/25 07:59:40;;;;;;;0.63;0.60;;;19.80;48.40;;;;;;5428622;26;20004;-63
2024/04/25 08:02:05;;;;;;;1.10;0.77;;;19.80;48.40;;;;;;5426828;26;20022;-63
2024/04/25 08:04:31;;;;;;;2.38;0.80;;;19.80;48.40;;;;;;5429450;26;20003;-62
2024/04/25 08:06:57;;;;;;;1.75;0.70;;;19.80;48.40;;;;;;5429224;26;19996;-62
2024/04/25 08:09:22;;;;;;;0.90;0.63;;;19.80;48.40;;;;;;5425519;26;20021;-62
2024/04/25 08:11:48;;;;;;;0.90;0.70;;;19.80;48.40;;;;;;5432755;26;20412;-62
2024/04/25 08:14:13;;;;;;;1.00;0.70;;;19.80;48.50;;;;;;5432984;26;20446;-62
2024/04/25 08:16:39;;;;;;;1.08;0.70;;;19.80;48.40;;;;;;5431306;26;19994;-62
2024/04/25 08:19:05;;;;;;;0.73;0.63;;;19.80;48.40;;;;;;5430843;26;20613;-63
2024/04/25 08:21:31;;;;;;;1.27;0.80;;;19.80;48.40;;;;;;5432291;26;20070;-62
2024/04/25 08:23:57;;;;;;;0.80;0.60;;;19.80;48.30;;;;;;5429671;26;20007;-62
2024/04/25 08:26:23;;;;;;;0.90;0.70;;;19.80;48.30;;;;;;5423758;26;20046;-62
2024/04/25 08:28:49;;;;;;;1.52;0.70;;;19.80;48.30;;;;;;5428528;26;20002;-62
2024/04/25 08:31:15;;;;;;;0.60;0.60;;;19.80;48.30;;;;;;5428851;26;20071;-60
2024/04/25 08:33:42;;;;;;;0.60;0.60;;;19.90;48.30;;;;;;5429098;26;20002;-61
2024/04/25 08:36:08;;;;;;;1.45;0.80;;;19.90;48.30;;;;;;5428386;26;20006;-61
2024/04/25 08:38:35;;;;;;;0.60;0.50;;;19.80;48.20;;;;;;5431876;26;20407;-61
2024/04/25 08:41:04;;;;;;;0.93;0.60;;;19.80;48.20;;;;;;5427598;26;20025;-61
2024/04/25 08:43:32;;;;;;;0.70;0.60;;;19.90;48.30;;;;;;5432525;26;20039;-60
2024/04/25 08:45:59;;;;;;;1.00;0.70;;;19.90;48.20;;;;;;5427458;26;20039;-61
2024/04/25 08:48:27;;;;;;;0.80;0.63;;;19.90;48.20;;;;;;5427517;26;20309;-60
2024/04/25 08:50:54;;;;;;;0.63;0.60;;;19.90;48.70;;;;;;5425633;26;20033;-60
2024/04/25 08:53:23;;;;;;;0.55;0.55;;;19.90;48.20;;;;;;5421685;26;20444;-61
2024/04/25 08:55:50;;;;;;;0.95;0.70;;;19.90;48.10;;;;;;5424483;26;20499;-61
2024/04/25 08:58:16;;;;;;;0.70;0.60;;;19.90;48.10;;;;;;5426978;26;20360;-60
2024/04/25 09:00:42;;;;;;;1.23;0.73;;;19.90;48.10;;;;;;5426328;26;20000;-62
2024/04/25 09:03:09;;;;;;;0.70;0.63;;;19.90;48.10;;;;;;5426772;26;20425;-62
2024/04/25 09:05:35;;;;;;;1.10;0.70;;;19.90;48.10;;;;;;5427577;26;20003;-62
2024/04/25 09:08:01;;;;;;;1.38;0.70;;;19.90;48.00;;;;;;5431331;26;21049;-63
2024/04/25 09:10:41;;;;;;;0.90;0.70;;;19.90;48.00;;;;;;5423476;26;20007;-63
2024/04/25 09:13:06;;;;;;;;;;;20.00;48.00;;;;;;5425215;26;20003;-62
2024/04/25 09:15:32;;;;;;;0.70;0.63;;;20.00;48.00;;;;;;5430930;26;19998;-62
2024/04/25 09:17:58;;;;;;;0.73;0.60;;;20.00;48.00;;;;;;5425857;26;20003;-62
2024/04/25 09:20:25;;;;;;;0.93;0.60;;;20.00;48.00;;;;;;5429375;26;20009;-63
2024/04/25 09:22:52;;;;;;;0.70;0.70;;;20.00;47.90;;;;;;5428177;26;20075;-62
2024/04/25 09:25:17;;;;;;;0.80;0.60;;;20.00;47.90;;;;;;5428189;26;20006;-62
2024/04/25 09:27:43;;;;;;;1.00;0.70;;;20.00;48.00;;;;;;5428600;26;20010;-62
2024/04/25 09:30:10;;;;;;;1.75;0.50;;;20.00;47.90;;;;;;5442664;26;20003;-62
2024/04/25 09:32:40;;;;;;;0.80;0.60;;;20.00;48.00;;;;;;5426483;26;20072;-62
2024/04/25 09:35:06;;;;;;;0.52;0.52;;;20.00;47.90;;;;;;5430936;26;20004;-62
2024/04/25 09:37:32;;;;;;;1.02;0.70;;;20.10;48.00;;;;;;5426360;26;20463;-62
2024/04/25 09:39:58;;;;;;;1.17;0.80;;;20.10;48.00;;;;;;5426568;26;20039;-59
2024/04/25 09:42:25;;;;;;;0.95;0.73;;;20.10;47.90;;;;;;5426072;26;20409;-59
2024/04/25 09:44:52;;;;;;;0.68;0.55;;;20.10;48.00;;;;;;5425956;26;20074;-59
2024/04/25 09:47:27;;;;;;;0.75;0.70;;;20.10;47.90;;;;;;5429827;26;20018;-60
2024/04/25 09:49:58;;;;;;;0.70;0.60;;;20.10;47.90;;;;;;5432516;26;20014;-59
2024/04/25 09:52:39;;;;;;;1.05;0.77;;;20.10;47.90;;;;;;5426190;26;20467;-59
2024/04/25 09:55:06;;;;;;;0.93;0.60;;;20.10;47.90;;;;;;5423234;26;20108;-59
2024/04/25 09:57:32;;;;;;;0.75;0.60;;;20.10;47.90;;;;;;5424438;26;20369;-59
2024/04/25 10:00:08;;;;;;;1.00;0.68;;;20.10;47.90;;;;;;5429126;26;20463;-59
2024/04/25 10:02:36;;;;;;;0.70;0.60;;;20.10;47.90;;;;;;5427594;26;20013;-60
2024/04/25 10:05:02;;;;;;;0.98;0.63;;;20.10;47.90;;;;;;5426830;26;20009;-60
2024/04/25 10:07:29;;;;;;;1.25;0.75;;;20.10;47.80;;;;;;5426021;26;20399;-59
2024/04/25 10:09:55;;;;;;;0.55;0.55;;;20.10;47.90;;;;;;5427390;26;19999;-59
2024/04/25 10:12:25;;;;;;;1.70;0.65;;;20.10;48.40;;;;;;5424252;26;20467;-59
2024/04/25 10:15:01;;;;;;;0.60;0.57;;;20.20;48.00;;;;;;5428330;26;20003;-60
2024/04/25 10:17:29;;;;;;;1.67;0.75;;;20.10;47.90;;;;;;5428560;26;19999;-59
2024/04/25 10:19:55;;;;;;;1.13;0.70;;;20.20;47.90;;;;;;5435503;26;20004;-59
2024/04/25 10:22:22;;;;;;;1.02;0.60;;;20.20;47.80;;;;;;5433516;26;20072;-60
2024/04/25 10:24:50;;;;;;;0.85;0.60;;;20.20;47.80;;;;;;5435085;26;20006;-60
2024/04/25 10:27:19;;;;;;;0.80;0.70;;;20.20;47.80;;;;;;5429572;26;20003;-59
2024/04/25 10:29:52;;;;;;;1.52;0.68;;;20.20;47.80;;;;;;5431213;26;19999;-61
2024/04/25 10:32:19;;;;;;;0.85;0.57;;;20.20;47.80;;;;;;5429739;26;20047;-61
2024/04/25 10:34:47;;;;;;;1.40;0.60;;;20.20;47.80;;;;;;5428299;26;20004;-61
2024/04/25 10:37:12;;;;;;;1.23;0.70;;;20.20;47.80;;;;;;5430272;26;20010;-61
2024/04/25 10:39:38;;;;;;;1.73;0.50;;;20.20;47.80;;;;;;5426483;26;20346;-61
2024/04/25 10:42:14;;;;;;;1.40;0.60;;;20.20;47.80;;;;;;5427079;26;20088;-61
2024/04/25 10:44:39;;;;;;;1.08;0.63;;;20.20;47.70;;;;;;5429451;26;20455;-61
2024/04/25 10:47:05;;;;;;;0.90;0.50;;;20.20;47.70;;;;;;5429571;26;20047;-61
2024/04/25 10:49:33;;;;;;;0.95;0.70;;;20.20;47.70;;;;;;5424919;26;20351;-62
2024/04/25 10:51:58;;;;;;;1.00;0.70;;;20.20;47.70;;;;;;5428723;26;20007;-62
2024/04/25 10:54:24;;;;;;;1.00;0.70;;;20.20;47.70;;;;;;5424482;26;20523;-62
2024/04/25 10:56:49;;;;;;;1.25;0.60;;;20.20;47.70;;;;;;5427730;26;20053;-62
2024/04/25 10:59:15;;;;;;;1.23;0.70;;;20.30;47.70;;;;;;5428884;26;20003;-62
2024/04/25 11:01:41;;;;;;;1.95;0.60;;;20.30;47.70;;;;;;5431548;26;20019;-62
2024/04/25 11:04:07;;;;;;;0.70;0.70;;;20.30;47.80;;;;;;5435669;26;20002;-61
2024/04/25 11:06:36;;;;;;;0.77;0.70;;;20.30;47.80;;;;;;5430811;26;20011;-62
2024/04/25 11:09:03;;;;;;;0.73;0.50;;;20.30;47.80;;;;;;5429615;26;19999;-61
2024/04/25 11:11:29;;;;;;;0.73;0.60;;;20.30;47.70;;;;;;5428127;26;20447;-62
2024/04/25 11:13:55;;;;;;;1.52;0.63;;;20.30;47.70;;;;;;5430893;26;20034;-62
2024/04/25 11:16:21;;;;;;;0.95;0.80;;;20.40;47.70;;;;;;5432173;26;19999;-62
2024/04/25 11:18:50;;;;;;;0.98;0.50;;;20.30;47.60;;;;;;5429976;26;20495;-62
2024/04/25 11:21:17;;;;;;;0.90;0.65;;;20.30;47.50;;;;;;5433356;26;19999;-62
2024/04/25 11:23:43;;;;;;;1.00;0.77;;;20.30;47.50;;;;;;5430090;26;20002;-62
2024/04/25 11:26:09;;;;;;;0.77;0.50;;;20.40;47.60;;;;;;5427462;26;19999;-62
2024/04/25 11:28:36;;;;;;;1.42;0.60;;;20.40;47.50;;;;;;5434081;26;19994;-62
2024/04/25 11:31:02;;;;;;;0.95;0.70;;;20.40;47.50;;;;;;5433281;26;20014;-61
2024/04/25 11:33:29;;;;;;;1.25;0.88;;;20.30;47.50;;;;;;5431917;26;20011;-62
2024/04/25 11:35:55;;;;;;;1.08;0.60;;;20.40;47.50;;;;;;5426061;26;20348;-61
2024/04/25 11:38:26;;;;;;;2.30;0.90;;;20.40;47.50;;;;;;5431643;26;20400;-62
2024/04/25 11:40:51;;;;;;;1.65;0.70;;;20.40;47.60;;;;;;5425085;26;20229;-62
2024/04/25 11:43:19;;;;;;;1.20;0.70;;;20.40;47.60;;;;;;5427608;26;20076;-63
2024/04/25 11:45:46;;;;;;;2.42;0.90;;;20.40;47.60;;;;;;5429742;26;19999;-63
2024/04/25 11:48:17;;;;;;;1.65;0.80;;;20.40;47.60;;;;;;5434003;26;20007;-63
2024/04/25 11:50:47;;;;;;;2.30;0.70;;;20.40;47.60;;;;;;5428504;26;19999;-63
2024/04/25 11:53:12;;;;;;;;;;;20.40;47.60;;;;;;5442757;26;19995;-63
2024/04/25 11:55:40;;;;;;;1.33;0.70;;;20.40;47.60;;;;;;5430785;26;20015;-62
2024/04/25 11:58:09;;;;;;;0.75;0.60;;;20.40;47.60;;;;;;5425729;26;20443;-63
2024/04/25 12:00:36;;;;;;;1.52;0.70;;;20.50;47.60;;;;;;5427402;26;20003;-61
2024/04/25 12:03:01;;;;;;;1.15;0.70;;;20.50;47.60;;;;;;5428566;26;20218;-60
2024/04/25 12:05:27;;;;;;;0.82;0.68;;;20.40;47.50;;;;;;5422541;26;20010;-60
2024/04/25 12:07:56;;;;;;;1.40;0.70;;;20.50;47.60;;;;;;5426964;26;20003;-60
2024/04/25 12:10:23;;;;;;;1.63;0.70;;;20.40;47.50;;;;;;5429336;26;20478;-60
2024/04/25 12:12:48;;;;;;;1.50;0.77;;;20.50;47.60;;;;;;5426920;26;19998;-60
2024/04/25 12:15:14;;;;;;;1.15;0.70;;;20.40;47.50;;;;;;5428858;26;20010;-61
2024/04/25 12:17:39;;;;;;;1.27;0.68;;;20.50;47.60;;;;;;5430552;26;20442;-61
2024/04/25 12:20:07;;;;;;;1.70;0.88;;;20.50;47.60;;;;;;5431062;26;19999;-61
2024/04/25 12:22:33;;;;;;;1.80;0.80;;;20.50;47.50;;;;;;5432018;26;20010;-60
2024/04/25 12:24:58;;;;;;;1.35;0.70;;;20.50;47.60;;;;;;5431032;26;20344;-60
2024/04/25 12:27:24;;;;;;;1.42;0.77;;;20.50;47.60;;;;;;5424918;26;20003;-61
2024/04/25 12:29:50;;;;;;;1.10;0.68;;;20.40;47.50;;;;;;5429192;26;20487;-60
2024/04/25 12:32:15;;;;;;;1.35;0.60;;;20.50;47.60;;;;;;5429543;26;20000;-60
2024/04/25 12:34:41;;;;;;;0.98;0.63;;;20.50;47.60;;;;;;5427655;26;21026;-60
2024/04/25 12:37:07;;;;;;;0.93;0.57;;;20.50;47.60;;;;;;5430033;26;20391;-60
2024/04/25 12:39:36;;;;;;;1.17;0.73;;;20.50;47.60;;;;;;5431507;26;20076;-61
2024/04/25 12:42:02;;;;;;;1.10;0.70;;;20.50;47.60;;;;;;5426993;26;20075;-60
2024/04/25 12:44:27;;;;;;;0.73;0.52;;;20.50;47.60;;;;;;5430439;26;20007;-61
2024/04/25 12:46:53;;;;;;;1.23;0.70;;;20.50;47.60;;;;;;5434327;26;20006;-60
2024/04/25 12:49:32;;;;;;;0.57;0.52;;;20.50;47.50;;;;;;5436771;26;20009;-60